sensor_id;sensor_type;location;lat;lon;timestamp;P1;durP1;ratioP1;P2;durP2;ratioP2
40781;SDS011;26493;51.938;7.626;2022-11-20T00:02:23;29.75;;;15.93;;
40781;SDS011;26493;51.938;7.626;2022-11-20T00:04:49;28.88;;;16.75;;
40781;SDS011;26493;51.938;7.626;2022-11-20T00:07:15;29.48;;;15.85;;
40781;SDS011;26493;51.938;7.626;2022-11-20T00:09:41;28.23;;;15.50;;
40781;SDS011;26493;51.938;7.626;2022-11-20T00:12:07;30.77;;;16.58;;
40781;SDS011;26493;51.938;7.626;2022-11-20T00:14:33;28.80;;;17.00;;
40781;SDS011;26493;51.938;7.626;2022-11-20T00:16:59;28.33;;;15.43;;
40781;SDS011;26493;51.938;7.626;2022-11-20T00:19:25;27.58;;;16.42;;
40781;SDS011;26493;51.938;7.626;2022-11-20T00:21:52;30.27;;;17.08;;
40781;SDS011;26493;51.938;7.626;2022-11-20T00:24:18;29.38;;;16.08;;
40781;SDS011;26493;51.938;7.626;2022-11-20T00:26:44;33.33;;;17.40;;
40781;SDS011;26493;51.938;7.626;2022-11-20T00:29:10;26.90;;;14.63;;
40781;SDS011;26493;51.938;7.626;2022-11-20T00:31:36;31.02;;;15.52;;
40781;SDS011;26493;51.938;7.626;2022-11-20T00:34:02;28.27;;;16.50;;
40781;SDS011;26493;51.938;7.626;2022-11-20T00:36:31;27.23;;;16.45;;
40781;SDS011;26493;51.938;7.626;2022-11-20T00:38:57;31.83;;;17.35;;
40781;SDS011;26493;51.938;7.626;2022-11-20T00:41:24;31.38;;;16.48;;
40781;SDS011;26493;51.938;7.626;2022-11-20T00:43:53;31.27;;;15.68;;
40781;SDS011;26493;51.938;7.626;2022-11-20T00:46:21;29.58;;;16.38;;
40781;SDS011;26493;51.938;7.626;2022-11-20T00:48:47;28.15;;;16.52;;
40781;SDS011;26493;51.938;7.626;2022-11-20T00:51:14;27.33;;;15.98;;
40781;SDS011;26493;51.938;7.626;2022-11-20T00:53:40;29.65;;;16.02;;
40781;SDS011;26493;51.938;7.626;2022-11-20T00:56:09;29.02;;;15.98;;
40781;SDS011;26493;51.938;7.626;2022-11-20T00:58:36;30.13;;;17.00;;
40781;SDS011;26493;51.938;7.626;2022-11-20T01:03:31;29.90;;;16.20;;
40781;SDS011;26493;51.938;7.626;2022-11-20T01:06:01;28.92;;;17.55;;
40781;SDS011;26493;51.938;7.626;2022-11-20T01:08:36;30.13;;;16.70;;
40781;SDS011;26493;51.938;7.626;2022-11-20T01:11:03;32.30;;;16.27;;
40781;SDS011;26493;51.938;7.626;2022-11-20T01:13:30;31.65;;;17.55;;
40781;SDS011;26493;51.938;7.626;2022-11-20T01:16:17;28.55;;;15.63;;
40781;SDS011;26493;51.938;7.626;2022-11-20T01:18:45;31.60;;;16.13;;
40781;SDS011;26493;51.938;7.626;2022-11-20T01:21:14;27.45;;;15.75;;
40781;SDS011;26493;51.938;7.626;2022-11-20T01:23:41;31.00;;;16.88;;
40781;SDS011;26493;51.938;7.626;2022-11-20T01:26:08;28.98;;;16.23;;
40781;SDS011;26493;51.938;7.626;2022-11-20T01:28:35;29.00;;;16.95;;
40781;SDS011;26493;51.938;7.626;2022-11-20T01:31:01;31.33;;;17.40;;
40781;SDS011;26493;51.938;7.626;2022-11-20T01:33:27;32.30;;;16.67;;
40781;SDS011;26493;51.938;7.626;2022-11-20T01:35:53;30.55;;;17.65;;
40781;SDS011;26493;51.938;7.626;2022-11-20T01:38:28;28.70;;;16.70;;
40781;SDS011;26493;51.938;7.626;2022-11-20T01:40:54;31.10;;;17.20;;
40781;SDS011;26493;51.938;7.626;2022-11-20T01:43:20;28.83;;;16.20;;
40781;SDS011;26493;51.938;7.626;2022-11-20T01:45:55;30.88;;;17.48;;
40781;SDS011;26493;51.938;7.626;2022-11-20T01:48:22;28.67;;;16.55;;
40781;SDS011;26493;51.938;7.626;2022-11-20T01:50:49;32.13;;;17.00;;
40781;SDS011;26493;51.938;7.626;2022-11-20T01:53:16;31.23;;;16.98;;
40781;SDS011;26493;51.938;7.626;2022-11-20T01:55:45;29.15;;;15.98;;
40781;SDS011;26493;51.938;7.626;2022-11-20T01:58:13;29.58;;;17.30;;
40781;SDS011;26493;51.938;7.626;2022-11-20T02:00:40;30.73;;;17.45;;
40781;SDS011;26493;51.938;7.626;2022-11-20T02:03:09;31.13;;;17.15;;
40781;SDS011;26493;51.938;7.626;2022-11-20T02:08:06;36.22;;;19.63;;
40781;SDS011;26493;51.938;7.626;2022-11-20T02:10:32;32.90;;;18.48;;
40781;SDS011;26493;51.938;7.626;2022-11-20T02:12:59;30.63;;;17.48;;
40781;SDS011;26493;51.938;7.626;2022-11-20T02:15:43;29.55;;;17.30;;
40781;SDS011;26493;51.938;7.626;2022-11-20T02:18:10;29.00;;;17.10;;
40781;SDS011;26493;51.938;7.626;2022-11-20T02:20:37;30.50;;;16.17;;
40781;SDS011;26493;51.938;7.626;2022-11-20T02:25:45;31.17;;;17.55;;
40781;SDS011;26493;51.938;7.626;2022-11-20T02:28:11;33.80;;;18.65;;
40781;SDS011;26493;51.938;7.626;2022-11-20T02:30:37;34.35;;;18.65;;
40781;SDS011;26493;51.938;7.626;2022-11-20T02:33:03;33.55;;;18.88;;
40781;SDS011;26493;51.938;7.626;2022-11-20T02:37:56;30.70;;;16.83;;
40781;SDS011;26493;51.938;7.626;2022-11-20T02:40:22;31.73;;;18.13;;
40781;SDS011;26493;51.938;7.626;2022-11-20T02:42:51;32.33;;;18.25;;
40781;SDS011;26493;51.938;7.626;2022-11-20T02:45:18;31.17;;;18.77;;
40781;SDS011;26493;51.938;7.626;2022-11-20T02:47:44;30.40;;;17.27;;
40781;SDS011;26493;51.938;7.626;2022-11-20T02:50:11;29.60;;;16.33;;
40781;SDS011;26493;51.938;7.626;2022-11-20T02:52:37;29.95;;;17.80;;
40781;SDS011;26493;51.938;7.626;2022-11-20T02:55:03;31.75;;;17.02;;
40781;SDS011;26493;51.938;7.626;2022-11-20T02:57:29;36.00;;;18.98;;
40781;SDS011;26493;51.938;7.626;2022-11-20T02:59:55;34.67;;;19.63;;
40781;SDS011;26493;51.938;7.626;2022-11-20T03:02:21;30.55;;;19.42;;
40781;SDS011;26493;51.938;7.626;2022-11-20T03:04:47;31.23;;;17.27;;
40781;SDS011;26493;51.938;7.626;2022-11-20T03:07:13;29.20;;;17.58;;
40781;SDS011;26493;51.938;7.626;2022-11-20T03:09:39;31.92;;;19.23;;
40781;SDS011;26493;51.938;7.626;2022-11-20T03:12:05;34.55;;;17.15;;
40781;SDS011;26493;51.938;7.626;2022-11-20T03:14:31;30.33;;;16.20;;
40781;SDS011;26493;51.938;7.626;2022-11-20T03:16:57;29.15;;;17.23;;
40781;SDS011;26493;51.938;7.626;2022-11-20T03:19:23;31.80;;;16.63;;
40781;SDS011;26493;51.938;7.626;2022-11-20T03:21:50;33.30;;;17.60;;
40781;SDS011;26493;51.938;7.626;2022-11-20T03:24:16;30.45;;;17.88;;
40781;SDS011;26493;51.938;7.626;2022-11-20T03:26:42;32.25;;;17.95;;
40781;SDS011;26493;51.938;7.626;2022-11-20T03:29:08;32.08;;;18.83;;
40781;SDS011;26493;51.938;7.626;2022-11-20T03:31:35;31.20;;;18.75;;
40781;SDS011;26493;51.938;7.626;2022-11-20T03:34:03;29.67;;;16.73;;
40781;SDS011;26493;51.938;7.626;2022-11-20T03:36:29;31.48;;;16.23;;
40781;SDS011;26493;51.938;7.626;2022-11-20T03:38:55;32.38;;;16.52;;
40781;SDS011;26493;51.938;7.626;2022-11-20T03:41:26;31.58;;;17.52;;
40781;SDS011;26493;51.938;7.626;2022-11-20T03:43:54;31.92;;;17.70;;
40781;SDS011;26493;51.938;7.626;2022-11-20T03:46:20;31.63;;;18.20;;
40781;SDS011;26493;51.938;7.626;2022-11-20T03:48:46;32.30;;;19.20;;
40781;SDS011;26493;51.938;7.626;2022-11-20T03:51:20;31.02;;;16.83;;
40781;SDS011;26493;51.938;7.626;2022-11-20T03:53:46;30.10;;;16.40;;
40781;SDS011;26493;51.938;7.626;2022-11-20T03:56:14;29.10;;;16.70;;
40781;SDS011;26493;51.938;7.626;2022-11-20T03:58:41;28.55;;;16.10;;
40781;SDS011;26493;51.938;7.626;2022-11-20T04:01:08;31.67;;;17.98;;
40781;SDS011;26493;51.938;7.626;2022-11-20T04:03:35;33.08;;;17.20;;
40781;SDS011;26493;51.938;7.626;2022-11-20T04:06:02;30.40;;;16.23;;
40781;SDS011;26493;51.938;7.626;2022-11-20T04:08:29;29.27;;;17.23;;
40781;SDS011;26493;51.938;7.626;2022-11-20T04:10:55;31.75;;;17.02;;
40781;SDS011;26493;51.938;7.626;2022-11-20T04:13:21;29.98;;;17.80;;
40781;SDS011;26493;51.938;7.626;2022-11-20T04:15:47;28.95;;;16.95;;
40781;SDS011;26493;51.938;7.626;2022-11-20T04:18:13;31.55;;;17.70;;
40781;SDS011;26493;51.938;7.626;2022-11-20T04:20:39;33.15;;;18.00;;
40781;SDS011;26493;51.938;7.626;2022-11-20T04:23:06;31.50;;;17.08;;
40781;SDS011;26493;51.938;7.626;2022-11-20T04:25:32;30.83;;;17.45;;
40781;SDS011;26493;51.938;7.626;2022-11-20T04:27:58;30.70;;;17.50;;
40781;SDS011;26493;51.938;7.626;2022-11-20T04:30:24;32.97;;;17.15;;
40781;SDS011;26493;51.938;7.626;2022-11-20T04:32:50;31.90;;;18.55;;
40781;SDS011;26493;51.938;7.626;2022-11-20T04:35:16;30.13;;;17.75;;
40781;SDS011;26493;51.938;7.626;2022-11-20T04:37:42;31.27;;;16.60;;
40781;SDS011;26493;51.938;7.626;2022-11-20T04:40:08;29.55;;;17.67;;
40781;SDS011;26493;51.938;7.626;2022-11-20T04:42:34;29.08;;;18.48;;
40781;SDS011;26493;51.938;7.626;2022-11-20T04:45:00;29.88;;;16.33;;
40781;SDS011;26493;51.938;7.626;2022-11-20T04:47:26;36.08;;;19.45;;
40781;SDS011;26493;51.938;7.626;2022-11-20T04:49:52;34.10;;;19.50;;
40781;SDS011;26493;51.938;7.626;2022-11-20T04:52:18;33.15;;;17.40;;
40781;SDS011;26493;51.938;7.626;2022-11-20T04:54:44;31.35;;;19.17;;
40781;SDS011;26493;51.938;7.626;2022-11-20T04:57:10;29.63;;;16.75;;
40781;SDS011;26493;51.938;7.626;2022-11-20T04:59:36;30.10;;;18.23;;
40781;SDS011;26493;51.938;7.626;2022-11-20T05:02:02;30.90;;;18.02;;
40781;SDS011;26493;51.938;7.626;2022-11-20T05:04:28;29.55;;;18.45;;
40781;SDS011;26493;51.938;7.626;2022-11-20T05:06:54;31.20;;;16.67;;
40781;SDS011;26493;51.938;7.626;2022-11-20T05:09:20;31.13;;;17.65;;
40781;SDS011;26493;51.938;7.626;2022-11-20T05:11:46;32.20;;;19.48;;
40781;SDS011;26493;51.938;7.626;2022-11-20T05:14:12;35.00;;;18.45;;
40781;SDS011;26493;51.938;7.626;2022-11-20T05:16:38;32.75;;;18.98;;
40781;SDS011;26493;51.938;7.626;2022-11-20T05:19:04;32.17;;;19.00;;
40781;SDS011;26493;51.938;7.626;2022-11-20T05:21:30;33.15;;;18.90;;
40781;SDS011;26493;51.938;7.626;2022-11-20T05:23:57;35.75;;;20.77;;
40781;SDS011;26493;51.938;7.626;2022-11-20T05:26:23;36.35;;;20.42;;
40781;SDS011;26493;51.938;7.626;2022-11-20T05:28:49;40.70;;;20.73;;
40781;SDS011;26493;51.938;7.626;2022-11-20T05:31:19;41.90;;;21.95;;
40781;SDS011;26493;51.938;7.626;2022-11-20T05:33:46;47.35;;;21.35;;
40781;SDS011;26493;51.938;7.626;2022-11-20T05:36:12;40.30;;;21.13;;
40781;SDS011;26493;51.938;7.626;2022-11-20T05:38:39;44.15;;;21.55;;
40781;SDS011;26493;51.938;7.626;2022-11-20T05:41:06;59.70;;;21.52;;
40781;SDS011;26493;51.938;7.626;2022-11-20T05:43:32;43.17;;;21.92;;
40781;SDS011;26493;51.938;7.626;2022-11-20T05:45:59;49.08;;;21.48;;
40781;SDS011;26493;51.938;7.626;2022-11-20T05:48:25;42.50;;;24.10;;
40781;SDS011;26493;51.938;7.626;2022-11-20T05:50:51;46.50;;;22.20;;
40781;SDS011;26493;51.938;7.626;2022-11-20T05:53:17;40.55;;;21.35;;
40781;SDS011;26493;51.938;7.626;2022-11-20T05:55:46;51.83;;;24.10;;
40781;SDS011;26493;51.938;7.626;2022-11-20T05:58:12;47.53;;;21.30;;
40781;SDS011;26493;51.938;7.626;2022-11-20T06:00:38;56.40;;;22.70;;
40781;SDS011;26493;51.938;7.626;2022-11-20T06:03:04;52.45;;;22.95;;
40781;SDS011;26493;51.938;7.626;2022-11-20T06:05:30;49.67;;;23.83;;
40781;SDS011;26493;51.938;7.626;2022-11-20T06:07:56;53.25;;;22.48;;
40781;SDS011;26493;51.938;7.626;2022-11-20T06:10:22;60.83;;;26.05;;
40781;SDS011;26493;51.938;7.626;2022-11-20T06:12:48;51.33;;;24.35;;
40781;SDS011;26493;51.938;7.626;2022-11-20T06:15:14;54.75;;;27.67;;
40781;SDS011;26493;51.938;7.626;2022-11-20T06:17:40;71.80;;;27.27;;
40781;SDS011;26493;51.938;7.626;2022-11-20T06:20:06;49.03;;;24.60;;
40781;SDS011;26493;51.938;7.626;2022-11-20T06:22:32;48.35;;;26.73;;
40781;SDS011;26493;51.938;7.626;2022-11-20T06:24:58;54.90;;;26.25;;
40781;SDS011;26493;51.938;7.626;2022-11-20T06:27:24;55.97;;;26.70;;
40781;SDS011;26493;51.938;7.626;2022-11-20T06:29:50;63.35;;;26.10;;
40781;SDS011;26493;51.938;7.626;2022-11-20T06:32:16;59.22;;;26.40;;
40781;SDS011;26493;51.938;7.626;2022-11-20T06:34:42;62.97;;;28.83;;
40781;SDS011;26493;51.938;7.626;2022-11-20T06:37:08;59.90;;;26.95;;
40781;SDS011;26493;51.938;7.626;2022-11-20T06:39:34;53.22;;;27.30;;
40781;SDS011;26493;51.938;7.626;2022-11-20T06:42:00;57.60;;;28.27;;
40781;SDS011;26493;51.938;7.626;2022-11-20T06:44:26;65.20;;;29.70;;
40781;SDS011;26493;51.938;7.626;2022-11-20T06:46:52;62.15;;;29.33;;
40781;SDS011;26493;51.938;7.626;2022-11-20T06:49:18;74.65;;;31.30;;
40781;SDS011;26493;51.938;7.626;2022-11-20T06:51:44;72.75;;;32.35;;
40781;SDS011;26493;51.938;7.626;2022-11-20T06:54:10;68.30;;;30.73;;
40781;SDS011;26493;51.938;7.626;2022-11-20T06:56:36;58.60;;;29.80;;
40781;SDS011;26493;51.938;7.626;2022-11-20T06:59:06;93.45;;;30.48;;
40781;SDS011;26493;51.938;7.626;2022-11-20T07:01:32;69.38;;;29.65;;
40781;SDS011;26493;51.938;7.626;2022-11-20T07:03:58;106.82;;;33.47;;
40781;SDS011;26493;51.938;7.626;2022-11-20T07:06:24;73.50;;;33.55;;
40781;SDS011;26493;51.938;7.626;2022-11-20T07:08:50;79.18;;;33.20;;
40781;SDS011;26493;51.938;7.626;2022-11-20T07:11:19;62.03;;;29.42;;
40781;SDS011;26493;51.938;7.626;2022-11-20T07:13:45;68.63;;;31.65;;
40781;SDS011;26493;51.938;7.626;2022-11-20T07:16:11;63.67;;;31.02;;
40781;SDS011;26493;51.938;7.626;2022-11-20T07:18:37;59.95;;;29.90;;
40781;SDS011;26493;51.938;7.626;2022-11-20T07:21:04;86.22;;;32.90;;
40781;SDS011;26493;51.938;7.626;2022-11-20T07:23:31;74.20;;;34.55;;
40781;SDS011;26493;51.938;7.626;2022-11-20T07:25:57;72.05;;;31.27;;
40781;SDS011;26493;51.938;7.626;2022-11-20T07:28:23;70.03;;;28.33;;
40781;SDS011;26493;51.938;7.626;2022-11-20T07:30:52;106.15;;;31.45;;
40781;SDS011;26493;51.938;7.626;2022-11-20T07:33:19;90.05;;;29.75;;
40781;SDS011;26493;51.938;7.626;2022-11-20T07:35:45;119.38;;;27.90;;
40781;SDS011;26493;51.938;7.626;2022-11-20T07:38:11;88.28;;;26.02;;
40781;SDS011;26493;51.938;7.626;2022-11-20T07:40:37;68.70;;;25.63;;
40781;SDS011;26493;51.938;7.626;2022-11-20T07:43:03;78.28;;;23.55;;
40781;SDS011;26493;51.938;7.626;2022-11-20T07:45:29;46.08;;;20.60;;
40781;SDS011;26493;51.938;7.626;2022-11-20T07:47:55;74.97;;;23.95;;
40781;SDS011;26493;51.938;7.626;2022-11-20T07:50:21;70.80;;;23.98;;
40781;SDS011;26493;51.938;7.626;2022-11-20T07:52:47;73.00;;;23.27;;
40781;SDS011;26493;51.938;7.626;2022-11-20T07:55:13;81.00;;;25.55;;
40781;SDS011;26493;51.938;7.626;2022-11-20T07:57:39;51.22;;;25.35;;
40781;SDS011;26493;51.938;7.626;2022-11-20T08:00:06;45.67;;;23.73;;
40781;SDS011;26493;51.938;7.626;2022-11-20T08:04:59;56.00;;;23.92;;
40781;SDS011;26493;51.938;7.626;2022-11-20T08:07:25;46.97;;;22.73;;
40781;SDS011;26493;51.938;7.626;2022-11-20T08:09:51;48.72;;;25.25;;
40781;SDS011;26493;51.938;7.626;2022-11-20T08:12:18;49.25;;;23.95;;
40781;SDS011;26493;51.938;7.626;2022-11-20T08:15:04;47.92;;;23.80;;
40781;SDS011;26493;51.938;7.626;2022-11-20T08:17:30;43.15;;;23.25;;
40781;SDS011;26493;51.938;7.626;2022-11-20T08:19:56;48.13;;;22.60;;
40781;SDS011;26493;51.938;7.626;2022-11-20T08:22:22;42.35;;;23.38;;
40781;SDS011;26493;51.938;7.626;2022-11-20T08:24:49;41.22;;;21.40;;
40781;SDS011;26493;51.938;7.626;2022-11-20T08:27:15;43.55;;;23.77;;
40781;SDS011;26493;51.938;7.626;2022-11-20T08:29:41;43.63;;;22.42;;
40781;SDS011;26493;51.938;7.626;2022-11-20T08:32:07;50.95;;;24.13;;
40781;SDS011;26493;51.938;7.626;2022-11-20T08:34:33;42.42;;;22.45;;
40781;SDS011;26493;51.938;7.626;2022-11-20T08:37:01;43.83;;;23.10;;
40781;SDS011;26493;51.938;7.626;2022-11-20T08:39:27;42.03;;;22.93;;
40781;SDS011;26493;51.938;7.626;2022-11-20T08:41:53;44.83;;;23.15;;
40781;SDS011;26493;51.938;7.626;2022-11-20T08:44:19;45.63;;;22.95;;
40781;SDS011;26493;51.938;7.626;2022-11-20T08:46:45;46.00;;;23.52;;
40781;SDS011;26493;51.938;7.626;2022-11-20T08:49:12;39.85;;;22.13;;
40781;SDS011;26493;51.938;7.626;2022-11-20T08:51:39;39.40;;;21.08;;
40781;SDS011;26493;51.938;7.626;2022-11-20T08:54:05;38.60;;;22.80;;
40781;SDS011;26493;51.938;7.626;2022-11-20T08:56:31;42.67;;;22.67;;
40781;SDS011;26493;51.938;7.626;2022-11-20T08:58:57;39.08;;;21.13;;
40781;SDS011;26493;51.938;7.626;2022-11-20T09:01:27;43.83;;;24.00;;
40781;SDS011;26493;51.938;7.626;2022-11-20T09:03:57;40.55;;;22.83;;
40781;SDS011;26493;51.938;7.626;2022-11-20T09:06:24;42.72;;;24.08;;
40781;SDS011;26493;51.938;7.626;2022-11-20T09:08:53;46.40;;;25.83;;
40781;SDS011;26493;51.938;7.626;2022-11-20T09:11:20;41.70;;;25.60;;
40781;SDS011;26493;51.938;7.626;2022-11-20T09:13:47;43.53;;;24.75;;
40781;SDS011;26493;51.938;7.626;2022-11-20T09:16:13;48.13;;;26.08;;
40781;SDS011;26493;51.938;7.626;2022-11-20T09:18:39;44.67;;;24.25;;
40781;SDS011;26493;51.938;7.626;2022-11-20T09:21:11;45.70;;;26.95;;
40781;SDS011;26493;51.938;7.626;2022-11-20T09:23:38;41.85;;;25.42;;
40781;SDS011;26493;51.938;7.626;2022-11-20T09:26:05;43.13;;;24.13;;
40781;SDS011;26493;51.938;7.626;2022-11-20T09:28:31;40.10;;;22.85;;
40781;SDS011;26493;51.938;7.626;2022-11-20T09:30:57;47.63;;;24.77;;
40781;SDS011;26493;51.938;7.626;2022-11-20T09:33:23;46.65;;;25.77;;
40781;SDS011;26493;51.938;7.626;2022-11-20T09:35:49;42.15;;;25.65;;
40781;SDS011;26493;51.938;7.626;2022-11-20T09:38:15;45.67;;;24.45;;
40781;SDS011;26493;51.938;7.626;2022-11-20T09:40:51;43.90;;;25.77;;
40781;SDS011;26493;51.938;7.626;2022-11-20T09:43:21;40.67;;;22.30;;
40781;SDS011;26493;51.938;7.626;2022-11-20T09:56:16;37.60;;;24.45;;
40781;SDS011;26493;51.938;7.626;2022-11-20T09:58:44;37.10;;;22.75;;
40781;SDS011;26493;51.938;7.626;2022-11-20T10:01:12;35.40;;;20.10;;
40781;SDS011;26493;51.938;7.626;2022-11-20T10:06:16;33.83;;;20.75;;
40781;SDS011;26493;51.938;7.626;2022-11-20T10:09:01;34.90;;;19.48;;
40781;SDS011;26493;51.938;7.626;2022-11-20T10:11:33;31.63;;;17.30;;
40781;SDS011;26493;51.938;7.626;2022-11-20T10:24:24;31.42;;;20.23;;
40781;SDS011;26493;51.938;7.626;2022-11-20T10:29:53;33.33;;;18.38;;
40781;SDS011;26493;51.938;7.626;2022-11-20T10:32:27;33.00;;;19.27;;
40781;SDS011;26493;51.938;7.626;2022-11-20T10:35:07;32.85;;;19.55;;
40781;SDS011;26493;51.938;7.626;2022-11-20T10:37:41;36.13;;;19.58;;
40781;SDS011;26493;51.938;7.626;2022-11-20T10:42:44;33.55;;;19.67;;
40781;SDS011;26493;51.938;7.626;2022-11-20T10:45:16;33.13;;;20.45;;
40781;SDS011;26493;51.938;7.626;2022-11-20T10:47:44;28.98;;;17.95;;
40781;SDS011;26493;51.938;7.626;2022-11-20T10:50:11;30.85;;;18.08;;
40781;SDS011;26493;51.938;7.626;2022-11-20T10:52:45;36.85;;;22.02;;
40781;SDS011;26493;51.938;7.626;2022-11-20T11:00:31;31.83;;;19.23;;
40781;SDS011;26493;51.938;7.626;2022-11-20T11:02:57;31.42;;;18.40;;
40781;SDS011;26493;51.938;7.626;2022-11-20T11:05:43;32.50;;;19.15;;
40781;SDS011;26493;51.938;7.626;2022-11-20T11:08:15;33.10;;;19.35;;
40781;SDS011;26493;51.938;7.626;2022-11-20T11:10:46;26.77;;;18.00;;
40781;SDS011;26493;51.938;7.626;2022-11-20T11:13:23;27.70;;;17.95;;
40781;SDS011;26493;51.938;7.626;2022-11-20T11:15:50;27.08;;;16.98;;
40781;SDS011;26493;51.938;7.626;2022-11-20T11:18:26;29.63;;;18.13;;
40781;SDS011;26493;51.938;7.626;2022-11-20T11:20:53;27.98;;;18.52;;
40781;SDS011;26493;51.938;7.626;2022-11-20T11:23:39;26.92;;;17.10;;
40781;SDS011;26493;51.938;7.626;2022-11-20T11:26:06;28.27;;;17.27;;
40781;SDS011;26493;51.938;7.626;2022-11-20T11:28:32;25.85;;;17.33;;
40781;SDS011;26493;51.938;7.626;2022-11-20T11:30:58;29.27;;;18.27;;
40781;SDS011;26493;51.938;7.626;2022-11-20T11:33:26;24.20;;;15.95;;
40781;SDS011;26493;51.938;7.626;2022-11-20T11:38:22;24.77;;;16.02;;
40781;SDS011;26493;51.938;7.626;2022-11-20T11:40:48;24.05;;;15.30;;
40781;SDS011;26493;51.938;7.626;2022-11-20T11:43:49;24.17;;;17.10;;
40781;SDS011;26493;51.938;7.626;2022-11-20T11:46:32;24.08;;;16.13;;
40781;SDS011;26493;51.938;7.626;2022-11-20T11:54:19;22.17;;;15.20;;
40781;SDS011;26493;51.938;7.626;2022-11-20T11:56:47;21.98;;;15.82;;
40781;SDS011;26493;51.938;7.626;2022-11-20T11:59:21;23.25;;;16.00;;
40781;SDS011;26493;51.938;7.626;2022-11-20T12:01:51;24.70;;;15.55;;
40781;SDS011;26493;51.938;7.626;2022-11-20T12:06:53;22.38;;;13.27;;
40781;SDS011;26493;51.938;7.626;2022-11-20T12:09:24;21.90;;;13.77;;
40781;SDS011;26493;51.938;7.626;2022-11-20T12:12:15;21.20;;;14.00;;
40781;SDS011;26493;51.938;7.626;2022-11-20T12:14:45;23.63;;;14.23;;
40781;SDS011;26493;51.938;7.626;2022-11-20T12:17:12;21.77;;;13.85;;
40781;SDS011;26493;51.938;7.626;2022-11-20T12:19:39;21.33;;;13.75;;
40781;SDS011;26493;51.938;7.626;2022-11-20T12:40:17;24.30;;;15.20;;
40781;SDS011;26493;51.938;7.626;2022-11-20T12:53:30;23.83;;;15.55;;
40781;SDS011;26493;51.938;7.626;2022-11-20T13:06:40;28.70;;;16.95;;
40781;SDS011;26493;51.938;7.626;2022-11-20T13:09:10;26.20;;;16.98;;
40781;SDS011;26493;51.938;7.626;2022-11-20T13:14:34;27.52;;;17.15;;
40781;SDS011;26493;51.938;7.626;2022-11-20T13:19:31;28.73;;;18.05;;
40781;SDS011;26493;51.938;7.626;2022-11-20T13:21:58;32.03;;;18.75;;
40781;SDS011;26493;51.938;7.626;2022-11-20T13:24:25;33.30;;;20.33;;
40781;SDS011;26493;51.938;7.626;2022-11-20T13:29:27;32.88;;;20.25;;
40781;SDS011;26493;51.938;7.626;2022-11-20T13:32:12;39.50;;;23.70;;
40781;SDS011;26493;51.938;7.626;2022-11-20T13:34:39;42.42;;;26.13;;
40781;SDS011;26493;51.938;7.626;2022-11-20T13:37:05;40.25;;;25.00;;
40781;SDS011;26493;51.938;7.626;2022-11-20T13:39:49;44.17;;;26.25;;
40781;SDS011;26493;51.938;7.626;2022-11-20T13:44:46;41.83;;;25.10;;
40781;SDS011;26493;51.938;7.626;2022-11-20T13:47:25;43.65;;;25.17;;
40781;SDS011;26493;51.938;7.626;2022-11-20T13:49:52;41.55;;;24.70;;
40781;SDS011;26493;51.938;7.626;2022-11-20T13:55:12;38.30;;;25.40;;
40781;SDS011;26493;51.938;7.626;2022-11-20T14:00:11;35.13;;;22.55;;
40781;SDS011;26493;51.938;7.626;2022-11-20T14:02:37;34.83;;;21.95;;
40781;SDS011;26493;51.938;7.626;2022-11-20T14:05:04;39.28;;;23.08;;
40781;SDS011;26493;51.938;7.626;2022-11-20T14:07:38;34.60;;;21.23;;
40781;SDS011;26493;51.938;7.626;2022-11-20T14:10:05;35.42;;;20.70;;
40781;SDS011;26493;51.938;7.626;2022-11-20T14:12:32;36.25;;;22.15;;
40781;SDS011;26493;51.938;7.626;2022-11-20T14:14:59;35.03;;;20.57;;
40781;SDS011;26493;51.938;7.626;2022-11-20T14:17:30;33.85;;;20.48;;
40781;SDS011;26493;51.938;7.626;2022-11-20T14:20:17;37.38;;;21.35;;
40781;SDS011;26493;51.938;7.626;2022-11-20T14:22:51;38.40;;;21.33;;
40781;SDS011;26493;51.938;7.626;2022-11-20T14:27:44;35.13;;;20.00;;
40781;SDS011;26493;51.938;7.626;2022-11-20T14:30:15;34.10;;;20.83;;
40781;SDS011;26493;51.938;7.626;2022-11-20T14:32:42;34.13;;;21.40;;
40781;SDS011;26493;51.938;7.626;2022-11-20T14:35:09;34.72;;;21.80;;
40781;SDS011;26493;51.938;7.626;2022-11-20T14:37:38;34.38;;;21.35;;
40781;SDS011;26493;51.938;7.626;2022-11-20T14:40:20;34.28;;;19.33;;
40781;SDS011;26493;51.938;7.626;2022-11-20T14:42:47;33.22;;;20.48;;
40781;SDS011;26493;51.938;7.626;2022-11-20T14:45:13;39.00;;;22.02;;
40781;SDS011;26493;51.938;7.626;2022-11-20T14:47:39;34.38;;;22.40;;
40781;SDS011;26493;51.938;7.626;2022-11-20T14:50:08;34.65;;;21.83;;
40781;SDS011;26493;51.938;7.626;2022-11-20T14:52:38;33.63;;;19.77;;
40781;SDS011;26493;51.938;7.626;2022-11-20T14:55:04;36.38;;;21.83;;
40781;SDS011;26493;51.938;7.626;2022-11-20T14:57:31;33.45;;;20.98;;
40781;SDS011;26493;51.938;7.626;2022-11-20T15:00:17;38.15;;;22.40;;
40781;SDS011;26493;51.938;7.626;2022-11-20T15:02:45;43.47;;;23.73;;
40781;SDS011;26493;51.938;7.626;2022-11-20T15:05:12;38.85;;;22.10;;
40781;SDS011;26493;51.938;7.626;2022-11-20T15:07:41;36.15;;;21.50;;
40781;SDS011;26493;51.938;7.626;2022-11-20T15:10:23;38.50;;;21.75;;
40781;SDS011;26493;51.938;7.626;2022-11-20T15:12:54;37.10;;;22.13;;
40781;SDS011;26493;51.938;7.626;2022-11-20T15:17:47;34.83;;;21.27;;
40781;SDS011;26493;51.938;7.626;2022-11-20T15:20:14;36.17;;;20.30;;
40781;SDS011;26493;51.938;7.626;2022-11-20T15:22:41;34.22;;;20.40;;
40781;SDS011;26493;51.938;7.626;2022-11-20T15:25:14;37.45;;;22.77;;
40781;SDS011;26493;51.938;7.626;2022-11-20T15:27:41;36.38;;;20.95;;
40781;SDS011;26493;51.938;7.626;2022-11-20T15:30:14;36.45;;;20.95;;
40781;SDS011;26493;51.938;7.626;2022-11-20T15:32:42;33.75;;;20.48;;
40781;SDS011;26493;51.938;7.626;2022-11-20T15:35:08;35.45;;;20.20;;
40781;SDS011;26493;51.938;7.626;2022-11-20T15:37:35;32.53;;;19.88;;
40781;SDS011;26493;51.938;7.626;2022-11-20T15:40:01;35.70;;;21.02;;
40781;SDS011;26493;51.938;7.626;2022-11-20T15:42:27;34.10;;;20.67;;
40781;SDS011;26493;51.938;7.626;2022-11-20T15:44:52;34.78;;;19.75;;
40781;SDS011;26493;51.938;7.626;2022-11-20T15:47:19;34.42;;;19.05;;
40781;SDS011;26493;51.938;7.626;2022-11-20T15:49:46;34.42;;;19.73;;
40781;SDS011;26493;51.938;7.626;2022-11-20T15:52:12;42.22;;;20.85;;
40781;SDS011;26493;51.938;7.626;2022-11-20T15:54:39;36.30;;;21.42;;
40781;SDS011;26493;51.938;7.626;2022-11-20T15:57:05;33.78;;;19.90;;
40781;SDS011;26493;51.938;7.626;2022-11-20T15:59:31;36.47;;;19.38;;
40781;SDS011;26493;51.938;7.626;2022-11-20T16:01:57;31.02;;;19.30;;
40781;SDS011;26493;51.938;7.626;2022-11-20T16:04:23;32.38;;;19.35;;
40781;SDS011;26493;51.938;7.626;2022-11-20T16:06:49;32.72;;;20.00;;
40781;SDS011;26493;51.938;7.626;2022-11-20T16:09:15;31.35;;;18.65;;
40781;SDS011;26493;51.938;7.626;2022-11-20T16:11:41;32.05;;;19.38;;
40781;SDS011;26493;51.938;7.626;2022-11-20T16:14:09;35.22;;;18.83;;
40781;SDS011;26493;51.938;7.626;2022-11-20T16:16:54;30.55;;;17.77;;
40781;SDS011;26493;51.938;7.626;2022-11-20T16:19:20;34.50;;;20.58;;
40781;SDS011;26493;51.938;7.626;2022-11-20T16:21:46;33.63;;;19.65;;
40781;SDS011;26493;51.938;7.626;2022-11-20T16:24:13;32.78;;;18.50;;